createdAt,value
2018-08-24T00:00:15.383Z,11.30
2018-08-24T00:02:19.366Z,11.50
2018-08-24T00:04:22.928Z,10.67
2018-08-24T00:06:26.552Z,11.43
2018-08-24T00:08:30.524Z,10.63
2018-08-24T00:10:34.025Z,11.03
2018-08-24T00:12:37.664Z,12.40
2018-08-24T00:14:42.474Z,13.27
2018-08-24T00:16:50.606Z,13.37
2018-08-24T00:18:55.925Z,12.40
2018-08-24T00:21:02.181Z,13.10
2018-08-24T00:23:05.692Z,13.30
2018-08-24T00:25:09.244Z,13.30
2018-08-24T00:27:13.104Z,12.30
2018-08-24T00:29:16.592Z,12.10
2018-08-24T00:31:20.163Z,12.07
2018-08-24T00:33:24.114Z,13.10
2018-08-24T00:35:27.889Z,12.10
2018-08-24T00:37:31.843Z,11.90
2018-08-24T00:39:43.893Z,12.53
2018-08-24T00:41:48.414Z,13.07
2018-08-24T00:43:55.824Z,12.03
2018-08-24T00:46:03.258Z,13.17
2018-08-24T00:48:10.818Z,15.00
2018-08-24T00:50:14.319Z,12.77
2018-08-24T00:52:18.191Z,13.50
2018-08-24T00:54:21.884Z,13.90
2018-08-24T00:56:25.339Z,12.13
2018-08-24T00:58:29.536Z,12.40
2018-08-24T01:00:38.372Z,12.20
2018-08-24T01:02:42.051Z,13.13
2018-08-24T01:04:45.907Z,12.20
2018-08-24T01:06:50.013Z,11.93
2018-08-24T01:08:57.868Z,12.00
2018-08-24T01:11:02.966Z,12.07
2018-08-24T01:13:16.273Z,11.57
2018-08-24T01:15:19.866Z,11.60
2018-08-24T01:17:29.208Z,12.17
2018-08-24T01:19:32.951Z,10.93
2018-08-24T01:21:36.814Z,11.23
2018-08-24T01:23:40.952Z,11.43
2018-08-24T01:25:44.771Z,11.90
2018-08-24T01:27:48.411Z,11.53
2018-08-24T01:29:52.208Z,11.23
2018-08-24T01:31:55.963Z,11.73
2018-08-24T01:34:02.835Z,11.53
2018-08-24T01:36:10.946Z,10.80
2018-08-24T01:38:18.111Z,11.27
2018-08-24T01:40:21.850Z,11.77
2018-08-24T01:42:26.187Z,10.50
2018-08-24T01:44:30.119Z,11.93
2018-08-24T01:46:33.679Z,10.27
2018-08-24T01:48:38.360Z,11.10
2018-08-24T01:50:42.889Z,10.60
2018-08-24T01:52:46.801Z,11.80
2018-08-24T01:54:50.670Z,10.33
2018-08-24T01:56:54.466Z,11.33
2018-08-24T01:59:00.899Z,11.30
2018-08-24T02:01:09.776Z,11.97
2018-08-24T02:03:19.739Z,11.37
2018-08-24T02:05:23.316Z,10.50
2018-08-24T02:07:27.430Z,10.57
2018-08-24T02:09:40.283Z,10.83
2018-08-24T02:11:46.842Z,10.07
2018-08-24T02:13:57.605Z,11.00
2018-08-24T02:16:01.046Z,11.03
2018-08-24T02:18:09.851Z,10.83
2018-08-24T02:20:19.172Z,10.40
2018-08-24T02:22:22.809Z,10.57
2018-08-24T02:24:26.545Z,10.80
2018-08-24T02:26:32.889Z,10.50
2018-08-24T02:28:40.532Z,10.30
2018-08-24T02:30:46.896Z,9.60
2018-08-24T02:32:53.714Z,9.87
2018-08-24T02:34:59.639Z,9.27
2018-08-24T02:37:03.448Z,10.07
2018-08-24T02:39:11.556Z,9.43
2018-08-24T02:41:15.222Z,8.87
2018-08-24T02:43:18.764Z,8.67
2018-08-24T02:45:23.002Z,9.40
2018-08-24T02:47:26.544Z,8.53
2018-08-24T02:49:30.339Z,8.20
2018-08-24T02:51:34.303Z,7.60
2018-08-24T02:53:39.335Z,7.80
2018-08-24T02:55:46.859Z,8.40
2018-08-24T02:57:54.830Z,8.03
2018-08-24T02:59:59.929Z,8.07
2018-08-24T03:02:03.762Z,8.00
2018-08-24T03:04:07.632Z,8.00
2018-08-24T03:06:11.417Z,8.17
2018-08-24T03:08:16.733Z,7.17
2018-08-24T03:10:20.564Z,7.07
2018-08-24T03:12:24.705Z,8.20
2018-08-24T03:14:28.171Z,6.80
2018-08-24T03:16:33.058Z,7.80
2018-08-24T03:18:36.576Z,7.97
2018-08-24T03:20:40.465Z,7.30
2018-08-24T03:22:47.552Z,7.87
2018-08-24T03:24:53.818Z,7.40
2018-08-24T03:26:59.867Z,7.43
2018-08-24T03:29:03.855Z,8.10
2018-08-24T03:31:07.524Z,7.20
2018-08-24T03:33:11.571Z,7.30
2018-08-24T03:35:15.419Z,8.57
2018-08-24T03:37:18.857Z,8.63
2018-08-24T03:39:22.895Z,8.03
2018-08-24T03:41:26.843Z,8.57
2018-08-24T03:43:30.434Z,9.23
2018-08-24T03:45:33.872Z,9.00
2018-08-24T03:47:37.919Z,8.10
2018-08-24T03:49:41.439Z,8.73
2018-08-24T03:52:48.041Z,8.53
2018-08-24T03:54:54.473Z,8.37
2018-08-24T03:56:59.899Z,8.57
2018-08-24T03:59:05.688Z,8.87
2018-08-24T04:01:10.704Z,8.30
2018-08-24T04:03:14.185Z,8.10
2018-08-24T04:05:17.663Z,9.47
2018-08-24T04:07:21.676Z,7.90
2018-08-24T04:09:25.236Z,8.47
2018-08-24T04:11:33.612Z,7.90
2018-08-24T04:13:37.418Z,9.67
2018-08-24T04:15:41.059Z,8.37
2018-08-24T04:17:45.395Z,8.40
2018-08-24T04:19:49.358Z,10.50
2018-08-24T04:21:54.670Z,7.53
2018-08-24T04:24:02.267Z,9.80
2018-08-24T04:26:10.872Z,8.73
2018-08-24T04:28:14.469Z,9.20
2018-08-24T04:30:17.947Z,8.30
2018-08-24T04:32:21.774Z,11.10
2018-08-24T04:34:26.511Z,8.53
2018-08-24T04:36:34.146Z,9.07
2018-08-24T04:38:38.517Z,10.40
2018-08-24T04:40:42.467Z,9.50
2018-08-24T04:42:47.759Z,9.50
2018-08-24T04:44:52.869Z,7.90
2018-08-24T04:46:59.166Z,9.20
2018-08-24T04:49:11.927Z,9.30
2018-08-24T04:51:18.119Z,9.50
2018-08-24T04:53:22.308Z,10.97
2018-08-24T04:55:27.762Z,10.10
2018-08-24T04:57:31.858Z,9.37
2018-08-24T05:02:18.857Z,9.27
2018-08-24T05:04:28.985Z,9.10
2018-08-24T05:06:32.847Z,10.77
2018-08-24T05:08:36.419Z,9.93
2018-08-24T05:10:47.165Z,10.10
2018-08-24T05:13:19.647Z,9.30
2018-08-24T05:15:25.494Z,10.20
2018-08-24T05:17:29.626Z,8.60
2018-08-24T05:19:35.263Z,8.73
2018-08-24T05:21:54.443Z,9.77
2018-08-24T05:23:58.688Z,10.60
2018-08-24T05:26:06.520Z,10.13
2018-08-24T05:28:12.705Z,8.03
2018-08-24T05:30:16.628Z,9.40
2018-08-24T05:32:22.794Z,11.30
2018-08-24T05:34:26.369Z,10.87
2018-08-24T05:36:31.447Z,11.03
2018-08-24T05:38:35.662Z,11.60
2018-08-24T05:40:45.998Z,11.77
2018-08-24T05:42:54.843Z,12.40
2018-08-24T05:44:59.993Z,11.10
2018-08-24T05:47:06.364Z,12.03
2018-08-24T05:49:10.481Z,12.10
2018-08-24T05:51:17.867Z,12.23
2018-08-24T05:53:25.451Z,11.57
2018-08-24T05:55:29.426Z,11.57
2018-08-24T05:57:34.689Z,11.23
2018-08-24T05:59:42.624Z,11.67
2018-08-24T06:01:52.282Z,9.37
2018-08-24T06:04:00.276Z,11.07
2018-08-24T06:06:04.698Z,10.63
2018-08-24T06:08:18.399Z,10.47
2018-08-24T06:10:30.861Z,10.37
2018-08-24T06:12:37.540Z,10.70
2018-08-24T06:14:44.691Z,10.90
2018-08-24T06:16:58.007Z,10.30
2018-08-24T06:19:04.043Z,11.00
2018-08-24T06:21:14.110Z,11.13
2018-08-24T06:23:20.985Z,10.97
2018-08-24T06:25:26.394Z,10.90
2018-08-24T06:27:33.858Z,10.87
2018-08-24T06:29:39.125Z,10.83
2018-08-24T06:31:52.325Z,11.13
2018-08-24T06:33:59.856Z,9.50
2018-08-24T06:36:10.533Z,10.43
2018-08-24T06:38:20.757Z,10.00
2018-08-24T06:40:25.483Z,9.20
2018-08-24T06:42:35.458Z,7.80
2018-08-24T06:44:45.570Z,8.67
2018-08-24T06:46:55.766Z,7.70
2018-08-24T06:49:07.837Z,7.40
2018-08-24T06:51:12.032Z,7.73
2018-08-24T06:53:17.425Z,7.03
2018-08-24T06:55:21.010Z,6.40
2018-08-24T06:57:25.828Z,6.27
2018-08-24T06:59:38.322Z,5.53
2018-08-24T07:01:44.904Z,6.13
2018-08-24T07:03:49.207Z,5.97
2018-08-24T07:05:58.734Z,5.53
2018-08-24T07:08:05.023Z,5.77
2018-08-24T07:10:10.947Z,5.80
2018-08-24T07:12:15.163Z,5.70
2018-08-24T07:14:22.529Z,6.00
2018-08-24T07:16:26.925Z,5.30
2018-08-24T07:18:38.136Z,4.80
2018-08-24T07:20:46.022Z,5.37
2018-08-24T07:22:50.078Z,4.70
2018-08-24T07:25:02.106Z,4.87
2018-08-24T07:27:14.212Z,4.50
2018-08-24T07:29:18.486Z,4.70
2018-08-24T07:31:25.397Z,3.80
2018-08-24T07:33:29.184Z,4.30
2018-08-24T07:35:38.550Z,4.20
2018-08-24T07:37:43.767Z,4.80
2018-08-24T07:39:48.136Z,4.40
2018-08-24T07:41:53.148Z,4.97
2018-08-24T07:44:02.818Z,4.50
2018-08-24T07:46:08.356Z,4.70
2018-08-24T07:48:18.303Z,4.43
2018-08-24T07:50:23.160Z,4.20
2018-08-24T07:52:29.264Z,4.20
2018-08-24T07:54:36.510Z,3.97
2018-08-24T07:56:43.497Z,4.00
2018-08-24T07:58:49.331Z,4.57
2018-08-24T08:00:55.995Z,4.53
2018-08-24T08:03:03.719Z,4.30
2018-08-24T08:05:16.039Z,3.80
2018-08-24T08:07:21.486Z,3.93
2018-08-24T08:09:26.201Z,3.93
2018-08-24T08:11:47.332Z,3.80
2018-08-24T08:13:51.930Z,3.60
2018-08-24T08:15:58.638Z,3.43
2018-08-24T08:18:09.210Z,3.03
2018-08-24T08:20:14.866Z,3.13
2018-08-24T08:22:31.562Z,3.17
2018-08-24T08:24:35.642Z,2.90
2018-08-24T08:26:41.839Z,2.60
2018-08-24T08:28:47.848Z,2.37
2018-08-24T08:30:54.815Z,2.67
2018-08-24T08:32:58.689Z,2.63
2018-08-24T08:35:02.895Z,2.40
2018-08-24T08:37:07.321Z,2.80
2018-08-24T08:39:15.738Z,2.27
2018-08-24T08:41:20.421Z,2.40
2018-08-24T08:43:24.616Z,2.07
2018-08-24T08:45:28.239Z,2.50
2018-08-24T08:47:32.698Z,2.50
2018-08-24T08:49:43.685Z,2.20
2018-08-24T08:51:50.859Z,2.60
2018-08-24T08:53:58.943Z,2.53
2018-08-24T08:56:03.874Z,1.87
2018-08-24T08:58:07.849Z,2.20
2018-08-24T09:00:12.488Z,2.30
2018-08-24T09:02:25.359Z,2.10
2018-08-24T09:04:29.208Z,2.10
2018-08-24T09:06:37.617Z,2.37
2018-08-24T09:08:42.545Z,1.70
2018-08-24T09:10:51.988Z,2.30
2018-08-24T09:13:01.019Z,2.10
2018-08-24T09:15:07.470Z,2.10
2018-08-24T09:17:31.997Z,2.30
2018-08-24T09:19:40.949Z,1.97
2018-08-24T09:21:55.892Z,2.07
2018-08-24T09:24:07.617Z,2.20
2018-08-24T09:26:17.012Z,2.10
2018-08-24T09:28:35.788Z,2.00
2018-08-24T09:30:52.729Z,2.07
2018-08-24T09:32:58.487Z,2.13
2018-08-24T09:35:02.372Z,2.40
2018-08-24T09:37:13.976Z,2.30
2018-08-24T09:39:22.556Z,2.10
2018-08-24T09:41:31.156Z,2.10
2018-08-24T09:43:40.917Z,2.10
2018-08-24T09:45:44.904Z,2.30
2018-08-24T09:47:55.023Z,2.37
2018-08-24T09:50:05.437Z,2.43
2018-08-24T09:52:15.399Z,2.43
2018-08-24T09:54:27.453Z,2.20
2018-08-24T09:56:36.065Z,3.20
2018-08-24T09:58:40.250Z,2.80
2018-08-24T10:00:51.141Z,3.57
2018-08-24T10:07:16.552Z,2.43
2018-08-24T10:09:21.410Z,2.23
2018-08-24T10:11:25.654Z,2.50
2018-08-24T10:13:30.840Z,2.50
2018-08-24T10:15:34.762Z,2.60
2018-08-24T10:17:41.473Z,2.77
2018-08-24T10:19:45.142Z,2.77
2018-08-24T10:21:48.977Z,2.80
2018-08-24T10:23:53.150Z,3.37
2018-08-24T10:26:00.506Z,2.90
2018-08-24T10:28:06.409Z,2.87
2018-08-24T10:30:16.538Z,3.07
2018-08-24T10:32:20.206Z,2.93
2018-08-24T10:34:23.885Z,3.00
2018-08-24T10:36:27.764Z,2.87
2018-08-24T10:38:31.214Z,3.03
2018-08-24T10:40:34.711Z,3.00
2018-08-24T10:42:38.676Z,3.00
2018-08-24T10:44:42.180Z,2.67
2018-08-24T10:46:45.624Z,2.60
2018-08-24T10:48:49.628Z,2.60
2018-08-24T10:50:53.357Z,2.60
2018-08-24T10:52:57.511Z,2.43
2018-08-24T10:55:04.337Z,2.60
2018-08-24T10:57:10.785Z,3.07
2018-08-24T10:59:17.820Z,2.40
2018-08-24T11:01:22.560Z,2.77
2018-08-24T11:03:26.428Z,2.60
2018-08-24T11:05:32.414Z,2.60
2018-08-24T11:07:36.971Z,2.80
2018-08-24T11:09:41.486Z,2.57
2018-08-24T11:11:45.257Z,2.60
2018-08-24T11:13:49.561Z,3.00
2018-08-24T11:15:53.457Z,2.80
2018-08-24T11:18:02.764Z,2.73
2018-08-24T11:20:11.814Z,2.77
2018-08-24T11:22:18.775Z,3.10
2018-08-24T11:24:24.639Z,2.80
2018-08-24T11:26:28.668Z,3.53
2018-08-24T11:28:32.527Z,3.77
2018-08-24T11:30:36.383Z,3.87
2018-08-24T11:32:44.247Z,5.23
2018-08-24T11:34:49.357Z,5.10
2018-08-24T11:36:57.093Z,6.00
2018-08-24T11:39:01.207Z,5.23
2018-08-24T11:41:05.410Z,5.50
2018-08-24T11:43:09.871Z,6.27
2018-08-24T11:45:13.795Z,6.83
2018-08-24T11:47:20.331Z,6.17
2018-08-24T11:49:25.070Z,5.73
2018-08-24T11:51:29.452Z,6.93
2018-08-24T11:53:33.625Z,6.37
2018-08-24T11:55:37.399Z,6.27
2018-08-24T11:57:45.579Z,6.73
2018-08-24T11:59:56.517Z,6.17
2018-08-24T12:02:01.589Z,6.97
2018-08-24T12:04:06.038Z,6.27
2018-08-24T12:06:09.935Z,6.93
2018-08-24T12:08:16.666Z,7.30
2018-08-24T12:10:22.424Z,7.63
2018-08-24T12:12:25.981Z,6.50
2018-08-24T12:14:29.556Z,6.73
2018-08-24T12:16:33.530Z,7.03
2018-08-24T12:18:37.393Z,7.17
2018-08-24T12:20:41.143Z,7.80
2018-08-24T12:22:48.094Z,7.43
2018-08-24T12:24:54.489Z,6.50
2018-08-24T12:27:00.701Z,8.23
2018-08-24T12:29:05.378Z,7.47
2018-08-24T12:31:09.635Z,7.67
2018-08-24T12:33:13.356Z,7.33
2018-08-24T12:35:17.467Z,7.13
2018-08-24T12:37:21.423Z,7.57
2018-08-24T12:39:24.962Z,6.80
2018-08-24T12:41:29.514Z,7.60
2018-08-24T12:43:33.482Z,7.30
2018-08-24T12:45:37.056Z,7.10
2018-08-24T12:47:41.109Z,8.03
2018-08-24T12:49:44.627Z,7.43
2018-08-24T12:51:50.252Z,6.50
2018-08-24T12:53:58.006Z,7.03
2018-08-24T12:56:10.091Z,7.00
2018-08-24T12:58:13.904Z,6.83
2018-08-24T13:00:17.880Z,6.63
2018-08-24T13:02:21.982Z,6.30
2018-08-24T13:04:26.115Z,6.30
2018-08-24T13:06:29.710Z,6.83
2018-08-24T13:08:33.655Z,6.20
2018-08-24T13:10:37.646Z,6.60
2018-08-24T13:12:42.073Z,7.07
2018-08-24T13:14:46.224Z,6.50
2018-08-24T13:16:49.936Z,6.60
2018-08-24T13:18:55.478Z,6.50
2018-08-24T13:21:03.368Z,6.47
2018-08-24T13:23:11.019Z,6.77
2018-08-24T13:25:15.245Z,6.30
2018-08-24T13:27:19.358Z,6.53
2018-08-24T13:29:27.063Z,6.77
2018-08-24T13:33:42.975Z,6.80
2018-08-24T13:35:48.426Z,7.60
2018-08-24T13:37:52.904Z,7.30
2018-08-24T13:39:56.856Z,7.17
2018-08-24T13:42:03.402Z,7.73
2018-08-24T13:44:10.068Z,6.90
2018-08-24T13:46:21.475Z,5.90
2018-08-24T13:48:26.906Z,6.77
2018-08-24T13:50:31.902Z,7.00
2018-08-24T13:52:38.764Z,6.97
2018-08-24T13:54:44.659Z,6.57
2018-08-24T13:56:49.590Z,6.70
2018-08-24T13:58:53.908Z,7.20
2018-08-24T14:00:58.706Z,7.20
2018-08-24T14:03:07.618Z,7.80
2018-08-24T14:05:13.898Z,7.10
2018-08-24T14:07:20.940Z,7.80
2018-08-24T14:09:25.337Z,8.23
2018-08-24T14:11:29.217Z,7.93
2018-08-24T14:13:33.063Z,7.10
2018-08-24T14:15:37.676Z,7.10
2018-08-24T14:17:41.588Z,8.33
2018-08-24T14:19:45.271Z,7.33
2018-08-24T14:21:49.098Z,8.00
2018-08-24T14:23:52.968Z,7.33
2018-08-24T14:25:56.926Z,7.40
2018-08-24T14:28:02.269Z,7.30
2018-08-24T14:30:11.430Z,7.80
2018-08-24T14:32:19.335Z,8.00
2018-08-24T14:34:28.245Z,7.70
2018-08-24T14:36:34.071Z,7.60
2018-08-24T14:38:40.405Z,7.80
2018-08-24T14:40:47.769Z,7.50
2018-08-24T14:42:55.423Z,7.67
2018-08-24T14:45:01.662Z,7.70
2018-08-24T14:47:06.666Z,7.40
2018-08-24T14:49:10.891Z,7.53
2018-08-24T14:51:15.181Z,7.77
2018-08-24T14:53:19.492Z,7.70
2018-08-24T14:55:24.034Z,7.60
2018-08-24T14:57:27.703Z,8.67
2018-08-24T14:59:33.105Z,7.57
2018-08-24T15:01:37.881Z,7.30
2018-08-24T15:03:43.442Z,8.07
2018-08-24T15:05:51.595Z,7.47
2018-08-24T15:07:57.085Z,7.97
2018-08-24T15:10:06.130Z,7.40
2018-08-24T15:12:10.337Z,7.30
2018-08-24T15:14:14.574Z,7.10
2018-08-24T15:16:18.387Z,7.27
2018-08-24T15:18:22.518Z,7.10
2018-08-24T15:20:26.353Z,6.70
2018-08-24T15:22:32.501Z,6.97
2018-08-24T15:24:36.868Z,8.37
2018-08-24T15:26:40.657Z,7.77
2018-08-24T15:28:45.789Z,7.40
2018-08-24T15:30:53.930Z,7.60
2018-08-24T15:33:00.320Z,7.40
2018-08-24T15:35:19.050Z,7.17
2018-08-24T15:37:23.380Z,7.40
2018-08-24T15:39:27.178Z,7.27
2018-08-24T15:41:30.735Z,7.20
2018-08-24T15:43:34.821Z,7.30
2018-08-24T15:45:38.516Z,7.63
2018-08-24T15:47:42.016Z,7.87
2018-08-24T15:49:46.079Z,7.37
2018-08-24T15:51:49.848Z,7.03
2018-08-24T15:53:57.303Z,7.37
2018-08-24T15:56:03.289Z,6.30
2018-08-24T15:58:08.509Z,7.27
2018-08-24T16:00:12.099Z,6.97
2018-08-24T16:02:15.635Z,7.17
2018-08-24T16:04:19.467Z,7.83
2018-08-24T16:06:23.010Z,7.47
2018-08-24T16:08:27.158Z,6.93
2018-08-24T16:10:30.707Z,9.20
2018-08-24T16:12:34.624Z,8.13
2018-08-24T16:14:38.860Z,8.30
2018-08-24T16:16:42.603Z,8.17
2018-08-24T16:18:50.569Z,8.87
2018-08-24T16:20:56.815Z,9.37
2018-08-24T16:23:03.818Z,8.70
2018-08-24T16:25:13.351Z,8.93
2018-08-24T16:27:22.394Z,8.10
2018-08-24T16:29:26.038Z,8.43
2018-08-24T16:31:29.609Z,8.57
2018-08-24T16:33:34.374Z,8.30
2018-08-24T16:35:38.133Z,8.27
2018-08-24T16:37:41.609Z,8.77
2018-08-24T16:39:45.452Z,9.23
2018-08-24T16:41:48.953Z,8.23
2018-08-24T16:43:53.129Z,8.77
2018-08-24T16:45:57.461Z,8.90
2018-08-24T16:48:04.904Z,8.77
2018-08-24T16:50:09.772Z,8.60
2018-08-24T16:52:19.555Z,9.30
2018-08-24T16:54:23.190Z,8.90
2018-08-24T16:56:26.833Z,9.37
2018-08-24T16:58:32.131Z,9.03
2018-08-24T17:00:35.858Z,9.93
2018-08-24T17:02:40.033Z,8.73
2018-08-24T17:04:44.289Z,8.87
2018-08-24T17:06:48.232Z,9.13
2018-08-24T17:08:52.159Z,9.80
2018-08-24T17:10:56.714Z,9.30
2018-08-24T17:13:02.656Z,8.50
2018-08-24T17:15:07.259Z,9.20
2018-08-24T17:17:15.855Z,8.80
2018-08-24T17:19:23.457Z,9.27
2018-08-24T17:21:30.376Z,9.47
2018-08-24T17:23:36.222Z,11.00
2018-08-24T17:25:40.264Z,8.50
2018-08-24T17:27:45.354Z,9.47
2018-08-24T17:29:50.263Z,8.90
2018-08-24T17:31:54.426Z,9.00
2018-08-24T17:33:59.026Z,9.40
2018-08-24T17:36:03.696Z,9.20
2018-08-24T17:38:08.151Z,8.80
2018-08-24T17:40:16.411Z,10.10
2018-08-24T17:42:20.436Z,10.40
2018-08-24T17:44:27.395Z,11.10
2018-08-24T17:46:30.960Z,10.33
2018-08-24T17:48:35.254Z,10.20
2018-08-24T17:50:39.074Z,9.70
2018-08-24T17:52:47.557Z,10.77
2018-08-24T17:54:54.494Z,9.77
2018-08-24T17:57:01.581Z,10.30
2018-08-24T17:59:05.341Z,10.17
2018-08-24T18:01:09.529Z,10.20
2018-08-24T18:03:13.362Z,10.10
2018-08-24T18:05:21.358Z,9.30
2018-08-24T18:07:25.790Z,9.30
2018-08-24T18:09:29.403Z,10.10
2018-08-24T18:11:33.675Z,10.13
2018-08-24T18:13:39.145Z,9.30
2018-08-24T18:15:43.553Z,9.20
2018-08-24T18:17:47.315Z,8.77
2018-08-24T18:19:51.208Z,9.60
2018-08-24T18:21:55.228Z,8.73
2018-08-24T18:24:03.352Z,10.13
2018-08-24T18:26:12.767Z,9.10
2018-08-24T18:28:16.724Z,10.90
2018-08-24T18:30:20.371Z,8.40
2018-08-24T18:32:24.269Z,8.47
2018-08-24T18:34:33.394Z,9.90
2018-08-24T18:36:37.014Z,9.67
2018-08-24T18:38:40.534Z,11.13
2018-08-24T18:41:16.821Z,9.50
2018-08-24T18:43:20.415Z,9.30
2018-08-24T18:45:26.904Z,8.20
2018-08-24T18:47:30.462Z,9.47
2018-08-24T18:49:34.404Z,9.20
2018-08-24T18:51:39.274Z,9.20
2018-08-24T18:53:42.806Z,9.63
2018-08-24T18:55:49.016Z,9.90
2018-08-24T18:57:53.301Z,9.70
2018-08-24T18:59:57.194Z,9.80
2018-08-24T19:02:04.997Z,9.30
2018-08-24T19:04:11.464Z,9.13
2018-08-24T19:06:21.777Z,8.77
2018-08-24T19:08:25.431Z,9.23
2018-08-24T19:10:31.624Z,9.40
2018-08-24T19:12:35.495Z,9.20
2018-08-24T19:14:39.359Z,9.97
2018-08-24T19:16:43.637Z,9.80
2018-08-24T19:18:52.477Z,9.90
2018-08-24T19:21:03.763Z,9.30
2018-08-24T19:23:12.782Z,8.80
2018-08-24T19:25:17.567Z,9.33
2018-08-24T19:27:21.891Z,9.37
2018-08-24T19:29:33.426Z,10.40
2018-08-24T19:31:37.397Z,17.43
2018-08-24T19:33:41.157Z,23.83
2018-08-24T19:35:47.003Z,44.07
2018-08-24T19:37:50.937Z,23.50
2018-08-24T19:40:00.197Z,15.57
2018-08-24T19:42:11.457Z,12.43
2018-08-24T19:44:16.464Z,10.33
2018-08-24T19:46:23.472Z,10.70
2018-08-24T19:48:32.416Z,47.57
2018-08-24T19:50:39.011Z,22.07
2018-08-24T19:52:43.188Z,11.80
2018-08-24T19:54:47.245Z,12.03
2018-08-24T19:56:51.585Z,10.10
2018-08-24T19:59:00.346Z,9.97
2018-08-24T20:01:04.414Z,10.50
2018-08-24T20:03:12.428Z,10.50
2018-08-24T20:05:16.367Z,10.67
2018-08-24T20:07:26.242Z,9.30
2018-08-24T20:09:36.802Z,10.07
2018-08-24T20:11:40.754Z,10.33
2018-08-24T20:13:44.948Z,9.47
2018-08-24T20:15:53.768Z,10.60
2018-08-24T20:17:57.563Z,17.43
2018-08-24T20:20:01.818Z,14.20
2018-08-24T20:22:09.981Z,15.20
2018-08-24T20:24:20.232Z,12.33
2018-08-24T20:26:36.014Z,11.20
2018-08-24T20:28:42.352Z,13.67
2018-08-24T20:30:47.526Z,30.60
2018-08-24T20:32:53.847Z,14.90
2018-08-24T20:35:00.023Z,12.07
2018-08-24T20:37:05.607Z,12.70
2018-08-24T20:39:12.228Z,119.27
2018-08-24T20:41:19.968Z,15.70
2018-08-24T20:43:26.989Z,29.27
2018-08-24T20:45:35.825Z,67.40
2018-08-24T20:47:40.398Z,114.07
2018-08-24T20:49:49.563Z,36.53
2018-08-24T20:51:57.011Z,22.00
2018-08-24T20:54:04.585Z,19.53
2018-08-24T20:56:10.506Z,44.60
2018-08-24T20:58:18.123Z,25.33
2018-08-24T21:00:24.474Z,13.20
2018-08-24T21:02:31.433Z,11.40
2018-08-24T21:04:35.935Z,10.93
2018-08-24T21:06:40.046Z,10.13
2018-08-24T21:08:43.927Z,10.63
2018-08-24T21:10:53.219Z,9.20
2018-08-24T21:13:01.809Z,9.80
2018-08-24T21:15:08.126Z,8.70
2018-08-24T21:17:12.292Z,9.13
2018-08-24T21:19:17.042Z,10.70
2018-08-24T21:21:21.142Z,8.97
2018-08-24T21:23:26.396Z,9.70
2018-08-24T21:25:34.443Z,9.80
2018-08-24T21:27:42.966Z,10.20
2018-08-24T21:29:47.723Z,9.17
2018-08-24T21:31:55.766Z,12.00
2018-08-24T21:34:02.118Z,10.40
2018-08-24T21:36:08.464Z,12.00
2018-08-24T21:38:12.514Z,12.27
2018-08-24T21:40:18.807Z,10.60
2018-08-24T21:42:23.703Z,9.77
2018-08-24T21:44:27.633Z,9.70
2018-08-24T21:46:31.884Z,10.03
2018-08-24T21:48:43.017Z,8.87
2018-08-24T21:50:46.856Z,8.80
2018-08-24T21:53:06.962Z,10.20
2018-08-24T21:55:11.717Z,530.40
2018-08-24T21:57:15.598Z,499.77
2018-08-24T21:59:20.864Z,479.77
2018-08-24T22:01:24.972Z,135.10
2018-08-24T22:03:28.756Z,41.10
2018-08-24T22:05:32.848Z,129.60
2018-08-24T22:07:36.489Z,309.53
2018-08-24T22:09:40.207Z,130.17
2018-08-24T22:11:44.645Z,41.77
2018-08-24T22:13:48.565Z,18.83
2018-08-24T22:15:52.313Z,13.70
2018-08-24T22:18:02.646Z,11.10
2018-08-24T22:20:09.778Z,11.07
2018-08-24T22:22:15.630Z,9.43
2018-08-24T22:24:19.562Z,9.53
2018-08-24T22:26:23.468Z,9.37
2018-08-24T22:28:27.335Z,9.93
2018-08-24T22:30:36.202Z,10.07
2018-08-24T22:32:40.217Z,9.37
2018-08-24T22:34:46.260Z,9.57
2018-08-24T22:36:51.988Z,8.83
2018-08-24T22:38:56.075Z,10.70
2018-08-24T22:41:02.098Z,8.70
2018-08-24T22:43:13.948Z,9.67
2018-08-24T22:45:19.305Z,9.73
2018-08-24T22:47:22.972Z,8.80
2018-08-24T22:49:26.729Z,10.23
2018-08-24T22:51:30.947Z,9.77
2018-08-24T22:53:34.754Z,9.80
2018-08-24T22:55:38.816Z,9.13
2018-08-24T22:57:42.708Z,10.33
2018-08-24T22:59:46.628Z,9.60
2018-08-24T23:01:50.625Z,9.50
2018-08-24T23:03:54.278Z,9.77
2018-08-24T23:05:58.044Z,9.57
2018-08-24T23:08:01.936Z,9.67
2018-08-24T23:10:08.907Z,9.40
2018-08-24T23:12:15.418Z,8.87
2018-08-24T23:14:21.316Z,8.80
2018-08-24T23:16:25.998Z,10.10
2018-08-24T23:18:30.192Z,10.10
2018-08-24T23:20:34.212Z,9.20
2018-08-24T23:22:38.325Z,10.07
2018-08-24T23:24:43.284Z,9.63
2018-08-24T23:26:47.191Z,9.27
2018-08-24T23:28:50.701Z,8.80
2018-08-24T23:30:54.293Z,9.10
2018-08-24T23:32:58.324Z,9.80
2018-08-24T23:35:02.670Z,9.40
2018-08-24T23:37:07.062Z,9.00
2018-08-24T23:39:14.327Z,8.87
2018-08-24T23:41:20.976Z,9.20
2018-08-24T23:43:28.345Z,8.20
2018-08-24T23:45:32.328Z,9.10
2018-08-24T23:47:35.884Z,9.00
2018-08-24T23:49:39.618Z,8.90
2018-08-24T23:51:43.939Z,9.13
2018-08-24T23:53:47.661Z,8.80
2018-08-24T23:55:51.228Z,9.37
2018-08-24T23:58:00.011Z,8.70
